createdAt,value
2023-05-02T06:01:42.444Z,3384.00
2023-05-02T06:02:42.649Z,3500.00
2023-05-02T06:03:42.601Z,3624.00
2023-05-02T06:04:42.481Z,3720.00
2023-05-02T06:05:42.372Z,3800.00
2023-05-02T06:06:42.374Z,3824.00
2023-05-02T06:07:42.390Z,3808.00
2023-05-02T06:08:42.340Z,3780.00
2023-05-02T06:09:42.338Z,3792.00
2023-05-02T06:10:42.316Z,3856.00
2023-05-02T06:11:42.318Z,3992.00
2023-05-02T06:12:42.295Z,4192.00
2023-05-02T06:13:42.297Z,4416.00
2023-05-02T06:14:42.268Z,4680.00
2023-05-02T06:15:42.311Z,4900.00
2023-05-02T06:16:42.511Z,5124.00
2023-05-02T06:17:42.333Z,5448.00
2023-05-02T06:18:42.228Z,5612.00
2023-05-02T06:19:42.223Z,5660.00
2023-05-02T06:20:42.203Z,5768.00
2023-05-02T06:21:42.202Z,5804.00
2023-05-02T06:22:42.189Z,5832.00
2023-05-02T06:23:42.172Z,5872.00
2023-05-02T06:24:42.160Z,5912.00
2023-05-02T06:25:42.148Z,5964.00
2023-05-02T06:26:42.135Z,5972.00
2023-05-02T06:27:42.127Z,6016.00
2023-05-02T06:28:42.111Z,6128.00
2023-05-02T06:29:42.101Z,6268.00
2023-05-02T06:30:42.097Z,6380.00
2023-05-02T06:31:42.120Z,6480.00
2023-05-02T06:32:42.081Z,6552.00
2023-05-02T06:33:42.087Z,6620.00
2023-05-02T06:34:42.042Z,6652.00
2023-05-02T06:35:42.033Z,6764.00
2023-05-02T06:36:42.022Z,7012.00
2023-05-02T06:37:42.011Z,7356.00
2023-05-02T06:38:41.995Z,7660.00
2023-05-02T06:39:41.984Z,7984.00
2023-05-02T06:40:41.981Z,8268.00
2023-05-02T06:41:41.973Z,8244.00
2023-05-02T06:42:41.964Z,8060.00
2023-05-02T06:43:41.953Z,7860.00
2023-05-02T06:44:41.927Z,7764.00
2023-05-02T06:45:41.919Z,7812.00
2023-05-02T06:46:41.990Z,7780.00
2023-05-02T06:47:41.937Z,7588.00
2023-05-02T06:48:41.882Z,7340.00
2023-05-02T06:49:41.903Z,7144.00
2023-05-02T06:50:41.858Z,7080.00
2023-05-02T06:51:41.873Z,7136.00
2023-05-02T06:52:41.841Z,7232.00
2023-05-02T06:53:41.849Z,7124.00
2023-05-02T06:54:41.822Z,6976.00
2023-05-02T06:55:41.806Z,6960.00
2023-05-02T06:56:41.791Z,7080.00
2023-05-02T06:57:41.792Z,7324.00
2023-05-02T06:58:41.798Z,7592.00
2023-05-02T06:59:41.761Z,7908.00
2023-05-02T07:00:41.773Z,8148.00
2023-05-02T07:01:41.941Z,8264.00
2023-05-02T07:02:41.803Z,8284.00
2023-05-02T07:03:41.770Z,8304.00
2023-05-02T07:04:41.747Z,8480.00
2023-05-02T07:05:41.720Z,8828.00
2023-05-02T07:06:41.736Z,9316.00
2023-05-02T07:07:41.683Z,9968.00
2023-05-02T07:08:41.657Z,10764.00
2023-05-02T07:09:41.658Z,11524.00
2023-05-02T07:10:41.637Z,12152.00
2023-05-02T07:11:41.631Z,12664.00
2023-05-02T07:12:41.621Z,13048.00
2023-05-02T07:13:41.623Z,13432.00
2023-05-02T07:14:41.603Z,13924.00
2023-05-02T07:15:41.586Z,14520.00
2023-05-02T07:16:41.618Z,15120.00
2023-05-02T07:17:41.601Z,15648.00
2023-05-02T07:18:41.548Z,15960.00
2023-05-02T07:19:43.923Z,16384.00
2023-05-02T07:20:41.525Z,16768.00
2023-05-02T07:21:41.534Z,17280.00
2023-05-02T07:22:41.523Z,17824.00
2023-05-02T07:23:41.495Z,18112.00
2023-05-02T07:24:41.516Z,17888.00
2023-05-02T07:25:41.473Z,17664.00
2023-05-02T07:26:41.457Z,17504.00
2023-05-02T07:27:41.456Z,17344.00
2023-05-02T07:28:41.434Z,17248.00
2023-05-02T07:29:41.427Z,17056.00
2023-05-02T07:30:41.421Z,16832.00
2023-05-02T07:31:41.423Z,16448.00
2023-05-02T07:32:41.461Z,15892.00
2023-05-02T07:33:41.381Z,15540.00
2023-05-02T07:34:41.363Z,15300.00
2023-05-02T07:35:41.377Z,14960.00
2023-05-02T07:36:41.349Z,14708.00
2023-05-02T07:37:41.364Z,14216.00
2023-05-02T07:38:41.324Z,13660.00
2023-05-02T07:39:41.318Z,13236.00
2023-05-02T07:40:41.308Z,12984.00
2023-05-02T07:41:41.287Z,12916.00
2023-05-02T07:42:41.274Z,12756.00
2023-05-02T07:43:41.265Z,12524.00
2023-05-02T07:44:41.253Z,12276.00
2023-05-02T07:45:41.257Z,12164.00
2023-05-02T07:46:41.356Z,12080.00
2023-05-02T07:47:41.260Z,11988.00
2023-05-02T07:48:41.205Z,11964.00
2023-05-02T07:49:41.200Z,12060.00
2023-05-02T07:50:41.187Z,12024.00
2023-05-02T07:51:41.176Z,11844.00
2023-05-02T07:52:41.172Z,11700.00
2023-05-02T07:53:41.179Z,11616.00
2023-05-02T07:54:41.146Z,11512.00
2023-05-02T07:55:41.132Z,11264.00
2023-05-02T07:56:41.119Z,11000.00
2023-05-02T07:57:41.118Z,10908.00
2023-05-02T07:58:41.102Z,10904.00
2023-05-02T07:59:41.090Z,10960.00
2023-05-02T08:00:41.076Z,10992.00
2023-05-02T08:01:41.078Z,11016.00
2023-05-02T08:02:41.121Z,11136.00
2023-05-02T08:03:41.191Z,11372.00
2023-05-02T08:04:41.152Z,11708.00
2023-05-02T08:05:41.024Z,11836.00
2023-05-02T08:06:41.095Z,11696.00
2023-05-02T08:07:40.999Z,11616.00
2023-05-02T08:08:41.009Z,11500.00
2023-05-02T08:09:40.999Z,11576.00
2023-05-02T08:10:40.978Z,11796.00
2023-05-02T08:11:40.959Z,11760.00
2023-05-02T08:12:40.944Z,11388.00
2023-05-02T08:13:40.933Z,10816.00
2023-05-02T08:14:40.936Z,10080.00
2023-05-02T08:15:40.944Z,9640.00
2023-05-02T08:16:41.042Z,9808.00
2023-05-02T08:17:40.926Z,10660.00
2023-05-02T08:18:40.879Z,12092.00
2023-05-02T08:19:40.869Z,13884.00
2023-05-02T08:20:40.865Z,15656.00
2023-05-02T08:21:40.847Z,17024.00
2023-05-02T08:22:40.849Z,17792.00
2023-05-02T08:23:40.829Z,18592.00
2023-05-02T08:24:41.042Z,20320.00
2023-05-02T08:25:40.829Z,23104.00
2023-05-02T08:26:40.819Z,28512.00
2023-05-02T08:27:40.790Z,80896.00
2023-05-02T08:28:40.773Z,71904.00
2023-05-02T08:29:40.761Z,34176.00
2023-05-02T08:30:40.757Z,26304.00
2023-05-02T08:31:40.812Z,22624.00
2023-05-02T08:32:40.744Z,19328.00
2023-05-02T08:33:40.717Z,16864.00
2023-05-02T08:34:40.701Z,15552.00
2023-05-02T08:35:40.690Z,14852.00
2023-05-02T08:36:40.708Z,14200.00
2023-05-02T08:37:40.756Z,13296.00
2023-05-02T08:38:40.661Z,12216.00
2023-05-02T08:39:40.648Z,11572.00
2023-05-02T08:40:42.850Z,11516.00
2023-05-02T08:41:40.650Z,11936.00
2023-05-02T08:42:40.608Z,12976.00
2023-05-02T08:43:40.603Z,14648.00
2023-05-02T08:44:40.586Z,16512.00
2023-05-02T08:45:40.586Z,18016.00
2023-05-02T08:46:40.575Z,20032.00
2023-05-02T08:47:40.575Z,22624.00
2023-05-02T08:48:40.553Z,24416.00
2023-05-02T08:49:40.528Z,25248.00
2023-05-02T08:50:40.532Z,26208.00
2023-05-02T08:51:42.288Z,25824.00
2023-05-02T08:52:40.499Z,25824.00
2023-05-02T08:53:40.483Z,26016.00
2023-05-02T08:54:40.473Z,26560.00
2023-05-02T08:55:40.459Z,27200.00
2023-05-02T08:56:40.452Z,27616.00
2023-05-02T08:57:40.459Z,28192.00
2023-05-02T08:58:40.426Z,27936.00
2023-05-02T08:59:40.418Z,36736.00
2023-05-02T09:00:40.404Z,35584.00
2023-05-02T09:01:40.580Z,41152.00
2023-05-02T09:02:40.420Z,34240.00
2023-05-02T09:03:40.372Z,33568.00
2023-05-02T09:04:40.541Z,32224.00
2023-05-02T09:05:40.347Z,30048.00
2023-05-02T09:06:41.445Z,27776.00
2023-05-02T09:07:40.327Z,26048.00
2023-05-02T09:08:40.334Z,24640.00
2023-05-02T09:09:40.303Z,23456.00
2023-05-02T09:10:40.316Z,22880.00
2023-05-02T09:11:40.301Z,22400.00
2023-05-02T09:12:40.480Z,21888.00
2023-05-02T09:13:40.293Z,21824.00
2023-05-02T09:14:40.264Z,22976.00
2023-05-02T09:15:40.268Z,48512.00
2023-05-02T09:16:40.471Z,25600.00
2023-05-02T09:17:40.506Z,29568.00
2023-05-02T09:18:40.381Z,25344.00
2023-05-02T09:19:40.298Z,26080.00
2023-05-02T09:20:40.323Z,28096.00
2023-05-02T09:21:40.355Z,34816.00
2023-05-02T09:22:40.328Z,64768.00
2023-05-02T09:23:40.150Z,50304.00
2023-05-02T09:24:40.141Z,41600.00
2023-05-02T09:25:40.129Z,39680.00
2023-05-02T09:26:40.119Z,37088.00
2023-05-02T09:27:40.256Z,34688.00
2023-05-02T09:28:40.095Z,34592.00
2023-05-02T09:29:40.197Z,27744.00
2023-05-02T09:30:40.112Z,24000.00
2023-05-02T09:32:40.167Z,21856.00
2023-05-02T09:33:40.063Z,21152.00
2023-05-02T09:34:40.046Z,20608.00
2023-05-02T09:35:40.019Z,19968.00
2023-05-02T09:36:40.013Z,20192.00
2023-05-02T09:37:39.996Z,22400.00
2023-05-02T09:38:39.986Z,27200.00
2023-05-02T09:39:39.974Z,34272.00
2023-05-02T09:40:39.963Z,57344.00
2023-05-02T09:41:39.951Z,52928.00
2023-05-02T09:42:39.940Z,45888.00
2023-05-02T09:43:39.936Z,82976.00
2023-05-02T09:44:39.941Z,40896.00
2023-05-02T09:45:39.938Z,29536.00
2023-05-02T09:46:40.079Z,24224.00
2023-05-02T09:47:39.896Z,21024.00
2023-05-02T09:48:39.875Z,19264.00
2023-05-02T09:49:39.879Z,18528.00
2023-05-02T09:50:39.852Z,18176.00
2023-05-02T09:51:39.844Z,17888.00
2023-05-02T09:52:39.833Z,17728.00
2023-05-02T09:53:39.817Z,17632.00
2023-05-02T09:54:39.814Z,17280.00
2023-05-02T09:55:39.793Z,16576.00
2023-05-02T09:56:39.788Z,15964.00
2023-05-02T09:57:39.934Z,16928.00
2023-05-02T09:58:40.091Z,20032.00
2023-05-02T09:59:39.760Z,26272.00
2023-05-02T10:00:39.745Z,36288.00
2023-05-02T10:01:39.798Z,67616.00
2023-05-02T10:02:40.071Z,42784.00
2023-05-02T10:03:39.838Z,40128.00
2023-05-02T10:04:39.995Z,43392.00
2023-05-02T10:05:39.689Z,45760.00
2023-05-02T10:06:39.713Z,34176.00
2023-05-02T10:07:39.662Z,28416.00
2023-05-02T10:08:39.659Z,23712.00
2023-05-02T10:09:39.641Z,20928.00
2023-05-02T10:10:39.653Z,20896.00
2023-05-02T10:11:39.621Z,23008.00
2023-05-02T10:12:39.613Z,24928.00
2023-05-02T10:13:39.921Z,25088.00
2023-05-02T10:14:39.600Z,23680.00
2023-05-02T10:15:39.596Z,21664.00
2023-05-02T10:16:39.563Z,20224.00
2023-05-02T10:17:39.709Z,19168.00
2023-05-02T10:18:39.544Z,18368.00
2023-05-02T10:19:39.534Z,17888.00
2023-05-02T10:20:39.528Z,17824.00
2023-05-02T10:21:39.507Z,18112.00
2023-05-02T10:22:39.653Z,19104.00
2023-05-02T10:23:39.487Z,20224.00
2023-05-02T10:24:39.476Z,21536.00
2023-05-02T10:25:39.462Z,22880.00
2023-05-02T10:26:39.455Z,24192.00
2023-05-02T10:27:39.442Z,25888.00
2023-05-02T10:28:39.431Z,28480.00
2023-05-02T10:29:39.421Z,31328.00
2023-05-02T10:30:39.407Z,32992.00
2023-05-02T10:31:39.429Z,32672.00
2023-05-02T10:32:39.470Z,30560.00
2023-05-02T10:33:39.398Z,30176.00
2023-05-02T10:34:39.360Z,31392.00
2023-05-02T10:35:39.351Z,33344.00
2023-05-02T10:36:39.350Z,35424.00
2023-05-02T10:37:39.332Z,37376.00
2023-05-02T10:38:39.344Z,38336.00
2023-05-02T10:39:39.325Z,38144.00
2023-05-02T10:40:39.303Z,43168.00
2023-05-02T10:41:39.290Z,47360.00
2023-05-02T10:42:39.291Z,46048.00
2023-05-02T10:43:39.264Z,55488.00
2023-05-02T10:44:39.262Z,59968.00
2023-05-02T10:45:39.238Z,81728.00
2023-05-02T10:46:39.273Z,102976.00
2023-05-02T10:47:39.266Z,51744.00
2023-05-02T10:48:39.205Z,48064.00
2023-05-02T10:49:39.216Z,40704.00
2023-05-02T10:50:39.183Z,35040.00
2023-05-02T10:51:39.198Z,29280.00
2023-05-02T10:52:39.160Z,26368.00
2023-05-02T10:53:39.169Z,23744.00
2023-05-02T10:54:39.149Z,20992.00
2023-05-02T10:55:39.136Z,19008.00
2023-05-02T10:56:39.114Z,18528.00
2023-05-02T10:57:39.101Z,18528.00
2023-05-02T10:58:39.094Z,17888.00
2023-05-02T10:59:39.104Z,16896.00
2023-05-02T11:00:39.111Z,15732.00
2023-05-02T11:01:39.383Z,14828.00
2023-05-02T11:02:39.094Z,14028.00
2023-05-02T11:03:39.106Z,13352.00
2023-05-02T11:04:39.067Z,13104.00
2023-05-02T11:05:39.038Z,13416.00
2023-05-02T11:06:39.036Z,13568.00
2023-05-02T11:07:38.990Z,13380.00
2023-05-02T11:08:39.004Z,13164.00
2023-05-02T11:09:38.969Z,12432.00
2023-05-02T11:10:38.959Z,11736.00
2023-05-02T11:11:38.957Z,11644.00
2023-05-02T11:12:38.941Z,11940.00
2023-05-02T11:13:38.924Z,12364.00
2023-05-02T11:14:38.916Z,12604.00
2023-05-02T11:15:38.902Z,13068.00
2023-05-02T11:16:38.915Z,14696.00
2023-05-02T11:17:38.898Z,18304.00
2023-05-02T11:18:38.879Z,23296.00
2023-05-02T11:19:38.867Z,27904.00
2023-05-02T11:20:38.847Z,31136.00
2023-05-02T11:21:38.854Z,33440.00
2023-05-02T11:22:38.825Z,35232.00
2023-05-02T11:23:38.811Z,37344.00
2023-05-02T11:24:38.834Z,34656.00
2023-05-02T11:25:38.789Z,33600.00
2023-05-02T11:26:38.780Z,32608.00
2023-05-02T11:27:38.778Z,31424.00
2023-05-02T11:28:38.755Z,30816.00
2023-05-02T11:29:38.756Z,30528.00
2023-05-02T11:30:38.742Z,30304.00
2023-05-02T11:31:38.816Z,30016.00
2023-05-02T11:32:38.914Z,29632.00
2023-05-02T11:33:38.702Z,29568.00
2023-05-02T11:34:38.714Z,29472.00
2023-05-02T11:35:38.676Z,29536.00
2023-05-02T11:36:38.679Z,29664.00
2023-05-02T11:37:38.684Z,29888.00
2023-05-02T11:38:38.672Z,30240.00
2023-05-02T11:39:38.642Z,31168.00
2023-05-02T11:40:38.628Z,32704.00
2023-05-02T11:41:38.624Z,33760.00
2023-05-02T11:42:38.600Z,34208.00
2023-05-02T11:43:38.590Z,33760.00
2023-05-02T11:44:38.572Z,34496.00
2023-05-02T11:45:38.592Z,36256.00
2023-05-02T11:46:38.657Z,37376.00
2023-05-02T11:47:38.588Z,37888.00
2023-05-02T11:48:38.583Z,38656.00
2023-05-02T11:49:38.522Z,39424.00
2023-05-02T11:50:40.070Z,40096.00
2023-05-02T11:51:38.491Z,39488.00
2023-05-02T11:52:38.489Z,38560.00
2023-05-02T11:53:38.525Z,39424.00
2023-05-02T11:54:38.474Z,40704.00
2023-05-02T11:55:38.451Z,40576.00
2023-05-02T11:56:38.449Z,43392.00
2023-05-02T11:57:38.428Z,48256.00
2023-05-02T11:58:38.429Z,79200.00
2023-05-02T11:59:38.404Z,68352.00
2023-05-02T12:00:38.411Z,60320.00
2023-05-02T12:01:38.384Z,54432.00
2023-05-02T12:02:38.419Z,53440.00
2023-05-02T12:03:38.601Z,40320.00
2023-05-02T12:04:38.355Z,36256.00
2023-05-02T12:05:38.411Z,36672.00
2023-05-02T12:06:38.361Z,30560.00
2023-05-02T12:07:38.351Z,28256.00
2023-05-02T12:08:38.314Z,30976.00
2023-05-02T12:09:38.397Z,32256.00
2023-05-02T12:10:38.293Z,33248.00
2023-05-02T12:11:38.319Z,38816.00
2023-05-02T12:12:38.425Z,46560.00
2023-05-02T12:13:38.251Z,58016.00
2023-05-02T12:14:38.247Z,46688.00
2023-05-02T12:15:38.238Z,43712.00
2023-05-02T12:16:38.344Z,36096.00
2023-05-02T12:17:38.271Z,29024.00
2023-05-02T12:18:38.300Z,28128.00
2023-05-02T12:19:38.188Z,29312.00
2023-05-02T12:20:38.174Z,30528.00
2023-05-02T12:21:38.172Z,31776.00
2023-05-02T12:22:38.326Z,33056.00
2023-05-02T12:23:38.145Z,33760.00
2023-05-02T12:24:38.136Z,33632.00
2023-05-02T12:25:38.142Z,33856.00
2023-05-02T12:26:38.115Z,35008.00
2023-05-02T12:27:38.129Z,45696.00
2023-05-02T12:28:38.095Z,34240.00
2023-05-02T12:29:38.074Z,34752.00
2023-05-02T12:30:38.069Z,35872.00
2023-05-02T12:31:38.099Z,35840.00
2023-05-02T12:32:38.090Z,35392.00
2023-05-02T12:33:38.058Z,34816.00
2023-05-02T12:34:38.032Z,36224.00
2023-05-02T12:35:38.011Z,38816.00
2023-05-02T12:36:38.011Z,41856.00
2023-05-02T12:37:38.092Z,42528.00
2023-05-02T12:38:37.969Z,42752.00
2023-05-02T12:39:37.970Z,47168.00
2023-05-02T12:40:37.950Z,49056.00
2023-05-02T12:41:37.988Z,47904.00
2023-05-02T12:42:37.950Z,57760.00
2023-05-02T12:43:38.251Z,38240.00
2023-05-02T12:44:37.918Z,28864.00
2023-05-02T12:45:37.901Z,21888.00
2023-05-02T12:46:37.938Z,18848.00
2023-05-02T12:47:37.904Z,18176.00
2023-05-02T12:48:37.863Z,18080.00
2023-05-02T12:49:37.863Z,18656.00
2023-05-02T12:50:37.839Z,19552.00
2023-05-02T12:51:37.830Z,20768.00
2023-05-02T12:52:37.821Z,22112.00
2023-05-02T12:53:37.812Z,23360.00
2023-05-02T12:54:37.974Z,24192.00
2023-05-02T12:55:37.784Z,24928.00
2023-05-02T12:56:37.773Z,26592.00
2023-05-02T12:57:37.786Z,30560.00
2023-05-02T12:58:37.755Z,98048.00
2023-05-02T12:59:37.747Z,35712.00
2023-05-02T13:00:37.835Z,32192.00
2023-05-02T13:01:37.909Z,29504.00
2023-05-02T13:02:37.746Z,27360.00
2023-05-02T13:03:37.747Z,25504.00
2023-05-02T13:04:37.686Z,24160.00
2023-05-02T13:05:37.676Z,23328.00
2023-05-02T13:06:37.995Z,22688.00
2023-05-02T13:07:37.673Z,21696.00
2023-05-02T13:08:37.653Z,20352.00
2023-05-02T13:09:37.692Z,19776.00
2023-05-02T13:10:37.635Z,19712.00
2023-05-02T13:11:37.660Z,20000.00
2023-05-02T13:12:37.596Z,20672.00
2023-05-02T13:13:37.602Z,21760.00
2023-05-02T13:14:37.680Z,23072.00
2023-05-02T13:15:37.568Z,24288.00
2023-05-02T13:16:37.682Z,25472.00
2023-05-02T13:17:37.692Z,26496.00
2023-05-02T13:18:37.570Z,26752.00
2023-05-02T13:19:40.521Z,26272.00
2023-05-02T13:20:38.535Z,25472.00
2023-05-02T13:21:37.494Z,24736.00
2023-05-02T13:22:37.488Z,24256.00
2023-05-02T13:23:37.469Z,24320.00
2023-05-02T13:24:37.460Z,25024.00
2023-05-02T13:25:37.453Z,26080.00
2023-05-02T13:26:37.441Z,27104.00
2023-05-02T13:27:37.435Z,27936.00
2023-05-02T13:28:37.433Z,29152.00
2023-05-02T13:29:37.430Z,30720.00
2023-05-02T13:30:37.428Z,31904.00
2023-05-02T13:31:37.450Z,35744.00
2023-05-02T13:32:37.452Z,39488.00
2023-05-02T13:33:37.373Z,51104.00
2023-05-02T13:34:37.354Z,97440.00
2023-05-02T13:35:37.345Z,52032.00
2023-05-02T13:36:37.322Z,59200.00
2023-05-02T13:37:37.319Z,26272.00
2023-05-02T13:38:37.320Z,21088.00
2023-05-02T13:39:37.292Z,16448.00
2023-05-02T13:40:37.285Z,13324.00
2023-05-02T13:41:37.272Z,12592.00
2023-05-02T13:42:37.257Z,12428.00
2023-05-02T13:43:37.251Z,11944.00
2023-05-02T13:44:37.240Z,10952.00
2023-05-02T13:45:37.263Z,10280.00
2023-05-02T13:46:37.363Z,10308.00
2023-05-02T13:47:38.338Z,10508.00
2023-05-02T13:48:37.197Z,10520.00
2023-05-02T13:49:37.185Z,10400.00
2023-05-02T13:50:37.172Z,10620.00
2023-05-02T13:51:37.168Z,11128.00
2023-05-02T13:52:37.301Z,11648.00
2023-05-02T13:53:37.138Z,12016.00
2023-05-02T13:54:37.130Z,12404.00
2023-05-02T13:55:37.123Z,13064.00
2023-05-02T13:56:37.102Z,13852.00
2023-05-02T13:57:37.098Z,14704.00
2023-05-02T13:58:37.077Z,15508.00
2023-05-02T13:59:37.094Z,16448.00
2023-05-02T14:00:37.059Z,17696.00
2023-05-02T14:01:37.095Z,19552.00
2023-05-02T14:02:37.110Z,22144.00
2023-05-02T14:03:37.082Z,25696.00
2023-05-02T14:04:37.010Z,30208.00
2023-05-02T14:05:37.002Z,33664.00
2023-05-02T14:06:37.025Z,36512.00
2023-05-02T14:07:36.983Z,41280.00
2023-05-02T14:08:36.970Z,40448.00
2023-05-02T14:09:36.959Z,37152.00
2023-05-02T14:10:36.947Z,43232.00
2023-05-02T14:11:36.937Z,48512.00
2023-05-02T14:12:36.938Z,38880.00
2023-05-02T14:13:36.916Z,51712.00
2023-05-02T14:14:36.899Z,43712.00
2023-05-02T14:15:36.910Z,42688.00
2023-05-02T14:16:37.061Z,43744.00
2023-05-02T14:17:36.919Z,42240.00
2023-05-02T14:18:36.863Z,39456.00
2023-05-02T14:19:36.872Z,37568.00
2023-05-02T14:20:36.840Z,38720.00
2023-05-02T14:21:36.827Z,40192.00
2023-05-02T14:22:36.827Z,34656.00
2023-05-02T14:23:36.808Z,25376.00
2023-05-02T14:24:36.803Z,22304.00
2023-05-02T14:25:36.788Z,22432.00
2023-05-02T14:26:36.772Z,26560.00
2023-05-02T14:27:36.757Z,27168.00
2023-05-02T14:28:38.211Z,27456.00
2023-05-02T14:29:36.749Z,24928.00
2023-05-02T14:30:36.734Z,20768.00
2023-05-02T14:31:36.820Z,17856.00
2023-05-02T14:32:36.727Z,14880.00
2023-05-02T14:33:36.714Z,13004.00
2023-05-02T14:34:36.680Z,13244.00
2023-05-02T14:35:36.669Z,14976.00
2023-05-02T14:36:36.654Z,16864.00
2023-05-02T14:37:36.653Z,17472.00
2023-05-02T14:38:36.635Z,17696.00
2023-05-02T14:39:36.644Z,17504.00
2023-05-02T14:40:36.608Z,17152.00
2023-05-02T14:41:36.600Z,17056.00
2023-05-02T14:42:36.612Z,17248.00
2023-05-02T14:43:36.578Z,17632.00
2023-05-02T14:44:36.582Z,17696.00
2023-05-02T14:45:36.558Z,17376.00
2023-05-02T14:46:36.575Z,17056.00
2023-05-02T14:47:36.581Z,16832.00
2023-05-02T14:48:36.522Z,16928.00
2023-05-02T14:49:36.574Z,17568.00
2023-05-02T14:50:36.502Z,18720.00
2023-05-02T14:51:36.488Z,19520.00
2023-05-02T14:52:36.533Z,19872.00
2023-05-02T14:53:36.482Z,19744.00
2023-05-02T14:54:36.454Z,19136.00
2023-05-02T14:55:36.448Z,18368.00
2023-05-02T14:56:36.434Z,17184.00
2023-05-02T14:57:36.417Z,15720.00
2023-05-02T14:58:36.406Z,14752.00
2023-05-02T14:59:36.471Z,13996.00
2023-05-02T15:00:36.393Z,13424.00
2023-05-02T15:01:36.388Z,12672.00
2023-05-02T15:02:36.506Z,11752.00
2023-05-02T15:03:46.027Z,10816.00
2023-05-02T15:04:37.418Z,10024.00
2023-05-02T15:05:36.379Z,9400.00
2023-05-02T15:06:37.077Z,9056.00
2023-05-02T15:07:36.311Z,9052.00
2023-05-02T15:08:37.321Z,9388.00
2023-05-02T15:09:36.293Z,9884.00
2023-05-02T15:10:36.273Z,10304.00
2023-05-02T15:11:36.261Z,10620.00
2023-05-02T15:12:36.257Z,10904.00
2023-05-02T15:13:36.239Z,11352.00
2023-05-02T15:14:36.229Z,12060.00
2023-05-02T15:15:36.219Z,12856.00
2023-05-02T15:16:36.220Z,13520.00
2023-05-02T15:17:36.610Z,13896.00
2023-05-02T15:18:36.192Z,14116.00
2023-05-02T15:19:36.175Z,14688.00
2023-05-02T15:20:36.163Z,16128.00
2023-05-02T15:21:36.179Z,17440.00
2023-05-02T15:22:36.156Z,18176.00
2023-05-02T15:23:36.131Z,18592.00
2023-05-02T15:24:36.129Z,19200.00
2023-05-02T15:25:36.109Z,20896.00
2023-05-02T15:26:36.097Z,23264.00
2023-05-02T15:27:36.196Z,35232.00
2023-05-02T15:28:36.087Z,27328.00
2023-05-02T15:29:36.065Z,25952.00
2023-05-02T15:30:36.131Z,24736.00
2023-05-02T15:31:36.068Z,22880.00
2023-05-02T15:32:36.206Z,21248.00
2023-05-02T15:33:38.016Z,20000.00
2023-05-02T15:34:36.077Z,19008.00
2023-05-02T15:35:36.079Z,18464.00
2023-05-02T15:36:35.985Z,18336.00
2023-05-02T15:37:36.025Z,18880.00
2023-05-02T15:38:38.129Z,19360.00
2023-05-02T15:39:35.952Z,19232.00
2023-05-02T15:40:35.968Z,18848.00
2023-05-02T15:41:35.931Z,18432.00
2023-05-02T15:42:36.798Z,18656.00
2023-05-02T15:43:35.913Z,19744.00
2023-05-02T15:44:35.988Z,20640.00
2023-05-02T15:45:36.183Z,21312.00
2023-05-02T15:46:36.073Z,21920.00
2023-05-02T15:47:36.100Z,25344.00
2023-05-02T15:48:35.977Z,45216.00
2023-05-02T15:49:35.916Z,43776.00
2023-05-02T15:50:35.908Z,42208.00
2023-05-02T15:51:35.857Z,37216.00
2023-05-02T15:52:35.861Z,26464.00
2023-05-02T15:53:36.003Z,31936.00
2023-05-02T15:54:35.789Z,29920.00
2023-05-02T15:55:35.774Z,37216.00
2023-05-02T15:56:35.770Z,37792.00
2023-05-02T15:57:35.747Z,39264.00
2023-05-02T15:58:35.741Z,39040.00
2023-05-02T15:59:35.729Z,27008.00
2023-05-02T16:00:35.719Z,30304.00
2023-05-02T16:01:35.763Z,35104.00
2023-05-02T16:02:35.694Z,33760.00
2023-05-02T16:03:35.767Z,13644.00
2023-05-02T16:04:35.750Z,10864.00
2023-05-02T16:05:35.661Z,9528.00
2023-05-02T16:06:35.687Z,8560.00
2023-05-02T16:07:35.637Z,9300.00
2023-05-02T16:08:35.627Z,10808.00
2023-05-02T16:09:35.692Z,13384.00
2023-05-02T16:10:35.726Z,14884.00
2023-05-02T16:11:35.586Z,15020.00
2023-05-02T16:12:35.579Z,15152.00
2023-05-02T16:13:35.564Z,14932.00
2023-05-02T16:14:35.575Z,14572.00
2023-05-02T16:15:35.543Z,14808.00
2023-05-02T16:16:35.753Z,14500.00
2023-05-02T16:17:35.538Z,14652.00
2023-05-02T16:18:35.531Z,13776.00
2023-05-02T16:19:35.525Z,13172.00
2023-05-02T16:20:35.547Z,21664.00
2023-05-02T16:21:35.532Z,11972.00
2023-05-02T16:22:35.508Z,24288.00
2023-05-02T16:23:35.534Z,13856.00
2023-05-02T16:24:35.592Z,14040.00
2023-05-02T16:25:35.596Z,14352.00
2023-05-02T16:26:35.535Z,13820.00
2023-05-02T16:27:35.408Z,14600.00
2023-05-02T16:28:35.399Z,14676.00
2023-05-02T16:29:35.397Z,13392.00
2023-05-02T16:30:35.376Z,13520.00
2023-05-02T16:31:35.412Z,22016.00
2023-05-02T16:32:35.380Z,17056.00
2023-05-02T16:33:35.343Z,11144.00
2023-05-02T16:34:35.330Z,11644.00
2023-05-02T16:35:35.319Z,10288.00
2023-05-02T16:36:35.317Z,14044.00
2023-05-02T16:37:35.388Z,9636.00
2023-05-02T16:38:35.298Z,9156.00
2023-05-02T16:39:35.280Z,9408.00
2023-05-02T16:40:35.285Z,17056.00
2023-05-02T16:41:35.297Z,16992.00
2023-05-02T16:42:35.267Z,13604.00
2023-05-02T16:43:35.251Z,15648.00
2023-05-02T16:44:35.229Z,11316.00
2023-05-02T16:45:35.211Z,11684.00
2023-05-02T16:46:35.275Z,11704.00
2023-05-02T16:47:35.211Z,11712.00
2023-05-02T16:48:35.382Z,10896.00
2023-05-02T16:49:35.172Z,10452.00
2023-05-02T16:50:35.160Z,9132.00
2023-05-02T16:51:35.149Z,8580.00
2023-05-02T16:52:35.135Z,8456.00
2023-05-02T16:53:35.131Z,8264.00
2023-05-02T16:54:35.109Z,8204.00
2023-05-02T16:55:35.105Z,8280.00
2023-05-02T16:56:35.089Z,8340.00
2023-05-02T16:57:35.097Z,7988.00
2023-05-02T16:58:35.067Z,7752.00
2023-05-02T16:59:35.055Z,7588.00
2023-05-02T17:00:35.094Z,7808.00
2023-05-02T17:01:35.115Z,8140.00
2023-05-02T17:02:35.142Z,8328.00
2023-05-02T17:03:35.040Z,8160.00
2023-05-02T17:04:35.009Z,7984.00
2023-05-02T17:05:35.147Z,7744.00
2023-05-02T17:06:35.025Z,7420.00
2023-05-02T17:07:34.973Z,6828.00
2023-05-02T17:08:34.950Z,6400.00
2023-05-02T17:09:34.971Z,6136.00
2023-05-02T17:10:34.929Z,5944.00
2023-05-02T17:11:34.923Z,5844.00
2023-05-02T17:12:34.909Z,5724.00
2023-05-02T17:13:34.929Z,5524.00
2023-05-02T17:14:34.892Z,5368.00
2023-05-02T17:15:34.867Z,5240.00
2023-05-02T17:16:35.052Z,5072.00
2023-05-02T17:17:34.850Z,4876.00
2023-05-02T17:18:34.855Z,4644.00
2023-05-02T17:19:34.844Z,4384.00
2023-05-02T17:20:34.826Z,4180.00
2023-05-02T17:21:34.807Z,4196.00
2023-05-02T17:22:34.806Z,4288.00
2023-05-02T17:23:34.788Z,4400.00
2023-05-02T17:24:34.772Z,4680.00
2023-05-02T17:25:34.787Z,5152.00
2023-05-02T17:26:34.752Z,5632.00
2023-05-02T17:27:34.743Z,5868.00
2023-05-02T17:28:34.732Z,5872.00
2023-05-02T17:29:34.741Z,5820.00
2023-05-02T17:30:34.714Z,5688.00
2023-05-02T17:31:34.766Z,5524.00
2023-05-02T17:32:34.718Z,5312.00
2023-05-02T17:33:34.690Z,5168.00
2023-05-02T17:34:34.671Z,5068.00
2023-05-02T17:35:34.667Z,5096.00
2023-05-02T17:36:34.660Z,5164.00
2023-05-02T17:37:34.637Z,5292.00
2023-05-02T17:38:34.626Z,5360.00
2023-05-02T17:39:34.629Z,5368.00
2023-05-02T17:40:36.096Z,5372.00
2023-05-02T17:41:34.780Z,5356.00
2023-05-02T17:42:34.575Z,5328.00
2023-05-02T17:43:34.565Z,5236.00
2023-05-02T17:44:34.564Z,5144.00
2023-05-02T17:45:34.615Z,5008.00
2023-05-02T17:46:34.563Z,4876.00
2023-05-02T17:47:34.583Z,4764.00
2023-05-02T17:48:34.499Z,4696.00
2023-05-02T17:49:34.490Z,4672.00
2023-05-02T17:50:34.481Z,4656.00